sensor_id;sensor_type;location;lat;lon;timestamp;P1;durP1;ratioP1;P2;durP2;ratioP2
58689;SDS011;44470;53.206;-6.106;2023-04-03T00:01:04;21.92;;;6.95;;
58689;SDS011;44470;53.206;-6.106;2023-04-03T00:03:30;16.25;;;6.55;;
58689;SDS011;44470;53.206;-6.106;2023-04-03T00:05:55;17.70;;;7.43;;
58689;SDS011;44470;53.206;-6.106;2023-04-03T00:08:21;13.90;;;6.22;;
58689;SDS011;44470;53.206;-6.106;2023-04-03T00:10:47;13.60;;;6.13;;
58689;SDS011;44470;53.206;-6.106;2023-04-03T00:13:13;13.82;;;6.43;;
58689;SDS011;44470;53.206;-6.106;2023-04-03T00:15:40;17.17;;;6.32;;
58689;SDS011;44470;53.206;-6.106;2023-04-03T00:18:06;15.45;;;6.15;;
58689;SDS011;44470;53.206;-6.106;2023-04-03T00:20:32;16.50;;;6.28;;
58689;SDS011;44470;53.206;-6.106;2023-04-03T00:22:58;15.23;;;6.25;;
58689;SDS011;44470;53.206;-6.106;2023-04-03T00:25:23;15.20;;;6.10;;
58689;SDS011;44470;53.206;-6.106;2023-04-03T00:27:49;16.63;;;5.75;;
58689;SDS011;44470;53.206;-6.106;2023-04-03T00:30:15;16.92;;;5.47;;
58689;SDS011;44470;53.206;-6.106;2023-04-03T00:32:42;13.25;;;4.82;;
58689;SDS011;44470;53.206;-6.106;2023-04-03T00:35:08;12.43;;;5.47;;
58689;SDS011;44470;53.206;-6.106;2023-04-03T00:37:34;13.38;;;5.07;;
58689;SDS011;44470;53.206;-6.106;2023-04-03T00:40:00;10.32;;;4.68;;
58689;SDS011;44470;53.206;-6.106;2023-04-03T00:42:26;11.93;;;5.35;;
58689;SDS011;44470;53.206;-6.106;2023-04-03T00:47:19;9.13;;;4.60;;
58689;SDS011;44470;53.206;-6.106;2023-04-03T00:49:45;11.55;;;5.05;;
58689;SDS011;44470;53.206;-6.106;2023-04-03T00:52:15;10.50;;;4.60;;
58689;SDS011;44470;53.206;-6.106;2023-04-03T00:54:43;8.93;;;4.47;;
58689;SDS011;44470;53.206;-6.106;2023-04-03T00:57:11;9.20;;;4.32;;
58689;SDS011;44470;53.206;-6.106;2023-04-03T00:59:44;9.43;;;4.20;;
58689;SDS011;44470;53.206;-6.106;2023-04-03T01:02:14;7.43;;;3.97;;
58689;SDS011;44470;53.206;-6.106;2023-04-03T01:04:41;9.43;;;3.97;;
58689;SDS011;44470;53.206;-6.106;2023-04-03T01:09:43;12.65;;;4.50;;
58689;SDS011;44470;53.206;-6.106;2023-04-03T01:14:47;8.55;;;3.80;;
58689;SDS011;44470;53.206;-6.106;2023-04-03T01:20:08;6.45;;;3.42;;
58689;SDS011;44470;53.206;-6.106;2023-04-03T01:22:41;6.60;;;3.42;;
58689;SDS011;44470;53.206;-6.106;2023-04-03T01:25:17;7.43;;;3.60;;
58689;SDS011;44470;53.206;-6.106;2023-04-03T01:27:43;6.68;;;3.67;;
58689;SDS011;44470;53.206;-6.106;2023-04-03T01:30:09;8.93;;;3.55;;
58689;SDS011;44470;53.206;-6.106;2023-04-03T01:32:35;6.40;;;3.40;;
58689;SDS011;44470;53.206;-6.106;2023-04-03T01:35:01;4.97;;;2.90;;
58689;SDS011;44470;53.206;-6.106;2023-04-03T01:37:26;5.60;;;3.40;;
58689;SDS011;44470;53.206;-6.106;2023-04-03T01:39:52;7.63;;;3.75;;
58689;SDS011;44470;53.206;-6.106;2023-04-03T01:42:18;7.95;;;3.08;;
58689;SDS011;44470;53.206;-6.106;2023-04-03T01:44:43;6.38;;;3.10;;
58689;SDS011;44470;53.206;-6.106;2023-04-03T01:47:09;7.10;;;2.95;;
58689;SDS011;44470;53.206;-6.106;2023-04-03T01:49:37;4.43;;;3.13;;
58689;SDS011;44470;53.206;-6.106;2023-04-03T01:52:02;5.35;;;3.10;;
58689;SDS011;44470;53.206;-6.106;2023-04-03T01:54:28;5.32;;;3.03;;
58689;SDS011;44470;53.206;-6.106;2023-04-03T01:56:53;4.07;;;2.75;;
58689;SDS011;44470;53.206;-6.106;2023-04-03T01:59:20;6.65;;;2.80;;
58689;SDS011;44470;53.206;-6.106;2023-04-03T02:01:45;6.43;;;3.00;;
58689;SDS011;44470;53.206;-6.106;2023-04-03T02:04:12;5.30;;;2.70;;
58689;SDS011;44470;53.206;-6.106;2023-04-03T02:06:37;4.25;;;2.50;;
58689;SDS011;44470;53.206;-6.106;2023-04-03T02:09:03;4.32;;;2.80;;
58689;SDS011;44470;53.206;-6.106;2023-04-03T02:11:29;3.80;;;2.60;;
58689;SDS011;44470;53.206;-6.106;2023-04-03T02:13:55;5.25;;;2.65;;
58689;SDS011;44470;53.206;-6.106;2023-04-03T02:16:21;3.75;;;2.65;;
58689;SDS011;44470;53.206;-6.106;2023-04-03T02:18:48;5.90;;;2.47;;
58689;SDS011;44470;53.206;-6.106;2023-04-03T02:21:13;4.22;;;2.33;;
58689;SDS011;44470;53.206;-6.106;2023-04-03T02:23:39;4.38;;;2.40;;
58689;SDS011;44470;53.206;-6.106;2023-04-03T02:26:06;3.35;;;2.40;;
58689;SDS011;44470;53.206;-6.106;2023-04-03T02:28:36;6.45;;;2.78;;
58689;SDS011;44470;53.206;-6.106;2023-04-03T02:31:02;5.05;;;2.38;;
58689;SDS011;44470;53.206;-6.106;2023-04-03T02:33:29;3.15;;;2.05;;
58689;SDS011;44470;53.206;-6.106;2023-04-03T02:35:55;3.92;;;2.13;;
58689;SDS011;44470;53.206;-6.106;2023-04-03T02:38:22;4.45;;;2.20;;
58689;SDS011;44470;53.206;-6.106;2023-04-03T02:40:48;2.78;;;2.17;;
58689;SDS011;44470;53.206;-6.106;2023-04-03T02:43:14;3.15;;;2.10;;
58689;SDS011;44470;53.206;-6.106;2023-04-03T02:45:40;2.80;;;2.20;;
58689;SDS011;44470;53.206;-6.106;2023-04-03T02:48:05;3.42;;;2.10;;
58689;SDS011;44470;53.206;-6.106;2023-04-03T02:50:31;2.80;;;2.17;;
58689;SDS011;44470;53.206;-6.106;2023-04-03T02:52:57;2.30;;;2.15;;
58689;SDS011;44470;53.206;-6.106;2023-04-03T02:55:22;3.67;;;2.33;;
58689;SDS011;44470;53.206;-6.106;2023-04-03T02:57:50;3.13;;;2.00;;
58689;SDS011;44470;53.206;-6.106;2023-04-03T03:00:16;4.03;;;2.30;;
58689;SDS011;44470;53.206;-6.106;2023-04-03T03:02:42;2.58;;;1.77;;
58689;SDS011;44470;53.206;-6.106;2023-04-03T03:05:07;2.55;;;2.20;;
58689;SDS011;44470;53.206;-6.106;2023-04-03T03:07:33;3.70;;;2.10;;
58689;SDS011;44470;53.206;-6.106;2023-04-03T03:09:59;2.83;;;1.83;;
58689;SDS011;44470;53.206;-6.106;2023-04-03T03:12:25;3.28;;;1.88;;
58689;SDS011;44470;53.206;-6.106;2023-04-03T03:14:51;1.95;;;1.83;;
58689;SDS011;44470;53.206;-6.106;2023-04-03T03:17:17;2.08;;;1.50;;
58689;SDS011;44470;53.206;-6.106;2023-04-03T03:19:43;2.25;;;1.70;;
58689;SDS011;44470;53.206;-6.106;2023-04-03T03:22:10;2.88;;;1.80;;
58689;SDS011;44470;53.206;-6.106;2023-04-03T03:24:36;2.17;;;1.65;;
58689;SDS011;44470;53.206;-6.106;2023-04-03T03:27:02;1.65;;;1.55;;
58689;SDS011;44470;53.206;-6.106;2023-04-03T03:29:27;2.08;;;1.75;;
58689;SDS011;44470;53.206;-6.106;2023-04-03T03:31:53;2.35;;;1.33;;
58689;SDS011;44470;53.206;-6.106;2023-04-03T03:37:28;1.60;;;1.50;;
58689;SDS011;44470;53.206;-6.106;2023-04-03T03:39:54;1.77;;;1.67;;
58689;SDS011;44470;53.206;-6.106;2023-04-03T03:42:19;1.70;;;1.58;;
58689;SDS011;44470;53.206;-6.106;2023-04-03T03:44:45;2.60;;;1.63;;
58689;SDS011;44470;53.206;-6.106;2023-04-03T03:47:11;2.97;;;1.67;;
58689;SDS011;44470;53.206;-6.106;2023-04-03T03:49:36;3.08;;;1.75;;
58689;SDS011;44470;53.206;-6.106;2023-04-03T03:52:02;1.75;;;1.65;;
58689;SDS011;44470;53.206;-6.106;2023-04-03T03:54:28;3.17;;;2.28;;
58689;SDS011;44470;53.206;-6.106;2023-04-03T03:56:53;1.73;;;1.63;;
58689;SDS011;44470;53.206;-6.106;2023-04-03T03:59:19;2.22;;;1.70;;
58689;SDS011;44470;53.206;-6.106;2023-04-03T04:01:46;2.72;;;1.85;;
58689;SDS011;44470;53.206;-6.106;2023-04-03T04:04:11;2.10;;;1.60;;
58689;SDS011;44470;53.206;-6.106;2023-04-03T04:06:37;1.55;;;1.45;;
58689;SDS011;44470;53.206;-6.106;2023-04-03T04:09:06;1.58;;;1.33;;
58689;SDS011;44470;53.206;-6.106;2023-04-03T04:11:32;2.13;;;1.67;;
58689;SDS011;44470;53.206;-6.106;2023-04-03T04:13:58;2.03;;;1.30;;
58689;SDS011;44470;53.206;-6.106;2023-04-03T04:16:27;1.63;;;1.48;;
58689;SDS011;44470;53.206;-6.106;2023-04-03T04:18:54;2.38;;;1.80;;
58689;SDS011;44470;53.206;-6.106;2023-04-03T04:21:20;1.75;;;1.65;;
58689;SDS011;44470;53.206;-6.106;2023-04-03T04:23:46;2.17;;;1.80;;
58689;SDS011;44470;53.206;-6.106;2023-04-03T04:26:13;1.70;;;1.60;;
58689;SDS011;44470;53.206;-6.106;2023-04-03T04:28:39;2.30;;;1.80;;
58689;SDS011;44470;53.206;-6.106;2023-04-03T04:31:05;1.92;;;1.40;;
58689;SDS011;44470;53.206;-6.106;2023-04-03T04:33:31;1.90;;;1.50;;
58689;SDS011;44470;53.206;-6.106;2023-04-03T04:35:59;1.80;;;1.70;;
58689;SDS011;44470;53.206;-6.106;2023-04-03T04:38:24;2.13;;;1.63;;
58689;SDS011;44470;53.206;-6.106;2023-04-03T04:40:52;1.90;;;1.70;;
58689;SDS011;44470;53.206;-6.106;2023-04-03T04:43:17;3.83;;;1.85;;
58689;SDS011;44470;53.206;-6.106;2023-04-03T04:45:46;1.80;;;1.60;;
58689;SDS011;44470;53.206;-6.106;2023-04-03T04:48:11;2.95;;;1.63;;
58689;SDS011;44470;53.206;-6.106;2023-04-03T04:50:37;2.35;;;1.88;;
58689;SDS011;44470;53.206;-6.106;2023-04-03T04:53:03;2.17;;;1.80;;
58689;SDS011;44470;53.206;-6.106;2023-04-03T04:55:29;1.73;;;1.60;;
58689;SDS011;44470;53.206;-6.106;2023-04-03T04:57:55;2.42;;;2.20;;
58689;SDS011;44470;53.206;-6.106;2023-04-03T05:00:21;1.70;;;1.60;;
58689;SDS011;44470;53.206;-6.106;2023-04-03T05:02:47;2.28;;;1.75;;
58689;SDS011;44470;53.206;-6.106;2023-04-03T05:05:12;1.98;;;1.80;;
58689;SDS011;44470;53.206;-6.106;2023-04-03T05:07:38;2.00;;;1.80;;
58689;SDS011;44470;53.206;-6.106;2023-04-03T05:10:04;1.70;;;1.60;;
58689;SDS011;44470;53.206;-6.106;2023-04-03T05:12:31;2.33;;;1.90;;
58689;SDS011;44470;53.206;-6.106;2023-04-03T05:14:59;2.78;;;1.70;;
58689;SDS011;44470;53.206;-6.106;2023-04-03T05:17:26;1.73;;;1.63;;
58689;SDS011;44470;53.206;-6.106;2023-04-03T05:19:54;2.00;;;1.77;;
58689;SDS011;44470;53.206;-6.106;2023-04-03T05:22:21;3.38;;;2.08;;
58689;SDS011;44470;53.206;-6.106;2023-04-03T05:24:48;1.58;;;1.48;;
58689;SDS011;44470;53.206;-6.106;2023-04-03T05:27:14;2.65;;;1.83;;
58689;SDS011;44470;53.206;-6.106;2023-04-03T05:29:43;1.52;;;1.45;;
58689;SDS011;44470;53.206;-6.106;2023-04-03T05:32:12;1.95;;;1.75;;
58689;SDS011;44470;53.206;-6.106;2023-04-03T05:34:38;1.95;;;1.75;;
58689;SDS011;44470;53.206;-6.106;2023-04-03T05:37:03;2.83;;;1.80;;
58689;SDS011;44470;53.206;-6.106;2023-04-03T05:39:30;2.47;;;1.90;;
58689;SDS011;44470;53.206;-6.106;2023-04-03T05:41:57;2.05;;;1.95;;
58689;SDS011;44470;53.206;-6.106;2023-04-03T05:44:23;1.98;;;1.85;;
58689;SDS011;44470;53.206;-6.106;2023-04-03T05:46:50;1.90;;;1.80;;
58689;SDS011;44470;53.206;-6.106;2023-04-03T05:49:15;1.92;;;1.83;;
58689;SDS011;44470;53.206;-6.106;2023-04-03T05:51:41;2.10;;;1.90;;
58689;SDS011;44470;53.206;-6.106;2023-04-03T05:54:19;1.98;;;1.83;;
58689;SDS011;44470;53.206;-6.106;2023-04-03T05:56:50;2.10;;;1.90;;
58689;SDS011;44470;53.206;-6.106;2023-04-03T05:59:17;2.20;;;2.00;;
58689;SDS011;44470;53.206;-6.106;2023-04-03T06:01:44;1.98;;;1.88;;
58689;SDS011;44470;53.206;-6.106;2023-04-03T06:04:09;2.40;;;2.20;;
58689;SDS011;44470;53.206;-6.106;2023-04-03T06:06:49;3.45;;;2.05;;
58689;SDS011;44470;53.206;-6.106;2023-04-03T06:09:16;2.38;;;2.00;;
58689;SDS011;44470;53.206;-6.106;2023-04-03T06:11:43;2.72;;;2.00;;
58689;SDS011;44470;53.206;-6.106;2023-04-03T06:14:09;3.42;;;2.10;;
58689;SDS011;44470;53.206;-6.106;2023-04-03T06:16:35;2.17;;;2.00;;
58689;SDS011;44470;53.206;-6.106;2023-04-03T06:19:02;1.98;;;1.88;;
58689;SDS011;44470;53.206;-6.106;2023-04-03T06:21:29;2.35;;;1.83;;
58689;SDS011;44470;53.206;-6.106;2023-04-03T06:23:55;2.80;;;2.13;;
58689;SDS011;44470;53.206;-6.106;2023-04-03T06:26:20;2.55;;;2.35;;
58689;SDS011;44470;53.206;-6.106;2023-04-03T06:28:47;3.67;;;1.98;;
58689;SDS011;44470;53.206;-6.106;2023-04-03T06:31:12;2.47;;;1.77;;
58689;SDS011;44470;53.206;-6.106;2023-04-03T06:33:38;2.20;;;2.00;;
58689;SDS011;44470;53.206;-6.106;2023-04-03T06:36:04;2.53;;;2.30;;
58689;SDS011;44470;53.206;-6.106;2023-04-03T06:38:30;2.83;;;1.92;;
58689;SDS011;44470;53.206;-6.106;2023-04-03T06:40:57;3.80;;;2.42;;
58689;SDS011;44470;53.206;-6.106;2023-04-03T06:43:22;2.92;;;2.22;;
58689;SDS011;44470;53.206;-6.106;2023-04-03T06:45:48;2.20;;;2.00;;
58689;SDS011;44470;53.206;-6.106;2023-04-03T06:48:13;2.92;;;2.13;;
58689;SDS011;44470;53.206;-6.106;2023-04-03T06:50:39;3.15;;;2.28;;
58689;SDS011;44470;53.206;-6.106;2023-04-03T06:53:05;2.33;;;2.20;;
58689;SDS011;44470;53.206;-6.106;2023-04-03T06:55:31;3.15;;;2.20;;
58689;SDS011;44470;53.206;-6.106;2023-04-03T06:57:56;2.60;;;2.40;;
58689;SDS011;44470;53.206;-6.106;2023-04-03T07:00:22;2.30;;;2.05;;
58689;SDS011;44470;53.206;-6.106;2023-04-03T07:02:47;2.75;;;2.10;;
58689;SDS011;44470;53.206;-6.106;2023-04-03T07:05:13;2.47;;;2.20;;
58689;SDS011;44470;53.206;-6.106;2023-04-03T07:07:39;2.63;;;2.20;;
58689;SDS011;44470;53.206;-6.106;2023-04-03T07:10:05;2.80;;;2.00;;
58689;SDS011;44470;53.206;-6.106;2023-04-03T07:12:31;2.88;;;2.42;;
58689;SDS011;44470;53.206;-6.106;2023-04-03T07:14:57;2.50;;;2.10;;
58689;SDS011;44470;53.206;-6.106;2023-04-03T07:17:23;3.33;;;2.28;;
58689;SDS011;44470;53.206;-6.106;2023-04-03T07:19:49;2.67;;;2.25;;
58689;SDS011;44470;53.206;-6.106;2023-04-03T07:22:14;4.18;;;2.15;;
58689;SDS011;44470;53.206;-6.106;2023-04-03T07:24:40;3.30;;;2.22;;
58689;SDS011;44470;53.206;-6.106;2023-04-03T07:27:05;5.07;;;2.40;;
58689;SDS011;44470;53.206;-6.106;2023-04-03T07:29:31;9.77;;;2.70;;
58689;SDS011;44470;53.206;-6.106;2023-04-03T07:31:56;7.60;;;2.53;;
58689;SDS011;44470;53.206;-6.106;2023-04-03T07:34:22;4.40;;;2.28;;
58689;SDS011;44470;53.206;-6.106;2023-04-03T07:36:48;6.30;;;2.35;;
58689;SDS011;44470;53.206;-6.106;2023-04-03T07:39:13;5.13;;;2.47;;
58689;SDS011;44470;53.206;-6.106;2023-04-03T07:41:39;4.25;;;2.22;;
58689;SDS011;44470;53.206;-6.106;2023-04-03T07:44:04;6.88;;;2.53;;
58689;SDS011;44470;53.206;-6.106;2023-04-03T07:46:30;5.13;;;2.50;;
58689;SDS011;44470;53.206;-6.106;2023-04-03T07:48:56;5.70;;;2.40;;
58689;SDS011;44470;53.206;-6.106;2023-04-03T07:51:22;7.43;;;2.20;;
58689;SDS011;44470;53.206;-6.106;2023-04-03T07:53:49;4.10;;;2.20;;
58689;SDS011;44470;53.206;-6.106;2023-04-03T07:56:16;2.55;;;2.00;;
58689;SDS011;44470;53.206;-6.106;2023-04-03T07:58:42;3.90;;;2.03;;
58689;SDS011;44470;53.206;-6.106;2023-04-03T08:01:07;2.53;;;2.10;;
58689;SDS011;44470;53.206;-6.106;2023-04-03T08:03:33;3.35;;;1.85;;
58689;SDS011;44470;53.206;-6.106;2023-04-03T08:06:03;5.78;;;2.08;;
58689;SDS011;44470;53.206;-6.106;2023-04-03T08:08:29;4.65;;;2.00;;
58689;SDS011;44470;53.206;-6.106;2023-04-03T08:10:55;3.90;;;2.05;;
58689;SDS011;44470;53.206;-6.106;2023-04-03T08:13:21;5.45;;;2.10;;
58689;SDS011;44470;53.206;-6.106;2023-04-03T08:15:48;5.22;;;2.05;;
58689;SDS011;44470;53.206;-6.106;2023-04-03T08:18:14;3.58;;;2.13;;
58689;SDS011;44470;53.206;-6.106;2023-04-03T08:20:41;4.50;;;2.00;;
58689;SDS011;44470;53.206;-6.106;2023-04-03T08:23:07;2.35;;;2.00;;
58689;SDS011;44470;53.206;-6.106;2023-04-03T08:25:34;2.67;;;1.80;;
58689;SDS011;44470;53.206;-6.106;2023-04-03T08:28:02;4.25;;;2.20;;
58689;SDS011;44470;53.206;-6.106;2023-04-03T08:30:28;3.80;;;1.83;;
58689;SDS011;44470;53.206;-6.106;2023-04-03T08:32:54;5.15;;;2.20;;
58689;SDS011;44470;53.206;-6.106;2023-04-03T08:35:20;2.10;;;1.90;;
58689;SDS011;44470;53.206;-6.106;2023-04-03T08:37:45;3.80;;;2.22;;
58689;SDS011;44470;53.206;-6.106;2023-04-03T08:40:15;2.97;;;1.60;;
58689;SDS011;44470;53.206;-6.106;2023-04-03T08:42:51;2.00;;;1.80;;
58689;SDS011;44470;53.206;-6.106;2023-04-03T08:48:10;3.95;;;2.15;;
58689;SDS011;44470;53.206;-6.106;2023-04-03T08:50:49;6.30;;;2.00;;
58689;SDS011;44470;53.206;-6.106;2023-04-03T08:53:19;1.77;;;1.67;;
58689;SDS011;44470;53.206;-6.106;2023-04-03T08:55:50;3.40;;;1.93;;
58689;SDS011;44470;53.206;-6.106;2023-04-03T09:00:51;3.33;;;1.80;;
58689;SDS011;44470;53.206;-6.106;2023-04-03T09:03:25;3.88;;;1.90;;
58689;SDS011;44470;53.206;-6.106;2023-04-03T09:06:02;4.20;;;2.13;;
58689;SDS011;44470;53.206;-6.106;2023-04-03T09:09:14;3.80;;;1.73;;
58689;SDS011;44470;53.206;-6.106;2023-04-03T09:11:27;4.53;;;1.88;;
58689;SDS011;44470;53.206;-6.106;2023-04-03T09:15:01;2.08;;;1.77;;
58689;SDS011;44470;53.206;-6.106;2023-04-03T09:16:57;11.27;;;2.58;;
58689;SDS011;44470;53.206;-6.106;2023-04-03T09:19:35;6.95;;;2.30;;
58689;SDS011;44470;53.206;-6.106;2023-04-03T09:24:47;10.70;;;2.40;;
58689;SDS011;44470;53.206;-6.106;2023-04-03T09:27:21;10.55;;;2.53;;
58689;SDS011;44470;53.206;-6.106;2023-04-03T09:29:46;8.15;;;2.40;;
58689;SDS011;44470;53.206;-6.106;2023-04-03T09:32:18;7.63;;;2.17;;
58689;SDS011;44470;53.206;-6.106;2023-04-03T09:37:59;10.35;;;2.53;;
58689;SDS011;44470;53.206;-6.106;2023-04-03T09:40:35;18.48;;;2.78;;
58689;SDS011;44470;53.206;-6.106;2023-04-03T09:45:50;22.70;;;3.78;;
58689;SDS011;44470;53.206;-6.106;2023-04-03T09:48:18;18.17;;;2.80;;
58689;SDS011;44470;53.206;-6.106;2023-04-03T09:58:42;21.45;;;3.65;;
58689;SDS011;44470;53.206;-6.106;2023-04-03T10:09:23;10.55;;;2.92;;
58689;SDS011;44470;53.206;-6.106;2023-04-03T10:11:57;11.25;;;2.78;;
58689;SDS011;44470;53.206;-6.106;2023-04-03T10:14:26;10.57;;;3.13;;
58689;SDS011;44470;53.206;-6.106;2023-04-03T10:16:54;13.38;;;3.00;;
58689;SDS011;44470;53.206;-6.106;2023-04-03T10:22:08;15.02;;;3.00;;
58689;SDS011;44470;53.206;-6.106;2023-04-03T10:25:07;18.92;;;3.50;;
58689;SDS011;44470;53.206;-6.106;2023-04-03T10:28:06;15.25;;;3.28;;
58689;SDS011;44470;53.206;-6.106;2023-04-03T10:30:48;7.82;;;2.50;;
58689;SDS011;44470;53.206;-6.106;2023-04-03T10:48:10;10.57;;;2.88;;
58689;SDS011;44470;53.206;-6.106;2023-04-03T10:50:58;10.55;;;2.67;;
58689;SDS011;44470;53.206;-6.106;2023-04-03T10:56:42;7.88;;;2.75;;
58689;SDS011;44470;53.206;-6.106;2023-04-03T11:04:51;10.80;;;2.95;;
58689;SDS011;44470;53.206;-6.106;2023-04-03T11:07:38;12.95;;;2.97;;
58689;SDS011;44470;53.206;-6.106;2023-04-03T11:10:13;11.23;;;2.72;;
58689;SDS011;44470;53.206;-6.106;2023-04-03T11:12:51;10.80;;;2.40;;
58689;SDS011;44470;53.206;-6.106;2023-04-03T11:15:21;8.45;;;2.50;;
58689;SDS011;44470;53.206;-6.106;2023-04-03T11:17:53;15.65;;;2.80;;
58689;SDS011;44470;53.206;-6.106;2023-04-03T11:20:29;15.38;;;3.10;;
58689;SDS011;44470;53.206;-6.106;2023-04-03T11:25:46;16.45;;;2.90;;
58689;SDS011;44470;53.206;-6.106;2023-04-03T11:28:17;11.38;;;2.70;;
58689;SDS011;44470;53.206;-6.106;2023-04-03T11:33:31;13.55;;;3.35;;
58689;SDS011;44470;53.206;-6.106;2023-04-03T11:36:09;11.43;;;3.00;;
58689;SDS011;44470;53.206;-6.106;2023-04-03T11:38:43;10.75;;;2.72;;
58689;SDS011;44470;53.206;-6.106;2023-04-03T11:41:11;13.95;;;3.22;;
58689;SDS011;44470;53.206;-6.106;2023-04-03T11:43:58;17.02;;;3.03;;
58689;SDS011;44470;53.206;-6.106;2023-04-03T11:47:09;9.70;;;2.90;;
58689;SDS011;44470;53.206;-6.106;2023-04-03T12:03:31;6.53;;;2.70;;
58689;SDS011;44470;53.206;-6.106;2023-04-03T12:11:32;10.40;;;2.88;;
58689;SDS011;44470;53.206;-6.106;2023-04-03T12:24:28;16.08;;;3.03;;
58689;SDS011;44470;53.206;-6.106;2023-04-03T12:34:55;30.85;;;10.20;;
58689;SDS011;44470;53.206;-6.106;2023-04-03T12:45:38;43.95;;;16.85;;
58689;SDS011;44470;53.206;-6.106;2023-04-03T12:48:06;53.40;;;19.17;;
58689;SDS011;44470;53.206;-6.106;2023-04-03T12:50:39;52.22;;;15.95;;
58689;SDS011;44470;53.206;-6.106;2023-04-03T12:53:10;38.22;;;12.13;;
58689;SDS011;44470;53.206;-6.106;2023-04-03T12:55:36;48.05;;;12.50;;
58689;SDS011;44470;53.206;-6.106;2023-04-03T12:58:22;39.78;;;13.45;;
58689;SDS011;44470;53.206;-6.106;2023-04-03T13:00:58;46.47;;;14.93;;
58689;SDS011;44470;53.206;-6.106;2023-04-03T13:03:41;44.17;;;14.90;;
58689;SDS011;44470;53.206;-6.106;2023-04-03T13:06:23;38.00;;;14.90;;
58689;SDS011;44470;53.206;-6.106;2023-04-03T13:08:55;50.83;;;16.02;;
58689;SDS011;44470;53.206;-6.106;2023-04-03T13:11:23;54.05;;;16.88;;
58689;SDS011;44470;53.206;-6.106;2023-04-03T13:13:59;52.73;;;17.90;;
58689;SDS011;44470;53.206;-6.106;2023-04-03T13:16:30;45.47;;;18.08;;
58689;SDS011;44470;53.206;-6.106;2023-04-03T13:18:57;50.03;;;17.27;;
58689;SDS011;44470;53.206;-6.106;2023-04-03T13:21:24;51.22;;;18.67;;
58689;SDS011;44470;53.206;-6.106;2023-04-03T13:26:22;45.97;;;19.23;;
58689;SDS011;44470;53.206;-6.106;2023-04-03T13:28:51;51.58;;;20.02;;
58689;SDS011;44470;53.206;-6.106;2023-04-03T13:31:19;47.22;;;21.23;;
58689;SDS011;44470;53.206;-6.106;2023-04-03T13:36:36;60.45;;;24.83;;
58689;SDS011;44470;53.206;-6.106;2023-04-03T13:39:06;60.65;;;24.55;;
58689;SDS011;44470;53.206;-6.106;2023-04-03T13:42:13;65.57;;;27.17;;
58689;SDS011;44470;53.206;-6.106;2023-04-03T13:44:42;73.72;;;28.23;;
58689;SDS011;44470;53.206;-6.106;2023-04-03T13:49:38;73.65;;;30.23;;
58689;SDS011;44470;53.206;-6.106;2023-04-03T13:54:53;57.75;;;25.00;;
58689;SDS011;44470;53.206;-6.106;2023-04-03T13:57:21;67.87;;;26.43;;
58689;SDS011;44470;53.206;-6.106;2023-04-03T13:59:47;78.13;;;29.25;;
58689;SDS011;44470;53.206;-6.106;2023-04-03T14:02:18;71.15;;;28.88;;
58689;SDS011;44470;53.206;-6.106;2023-04-03T14:04:50;67.63;;;29.67;;
58689;SDS011;44470;53.206;-6.106;2023-04-03T14:07:21;84.95;;;32.80;;
58689;SDS011;44470;53.206;-6.106;2023-04-03T14:09:47;81.13;;;33.20;;
58689;SDS011;44470;53.206;-6.106;2023-04-03T14:12:18;74.40;;;33.72;;
58689;SDS011;44470;53.206;-6.106;2023-04-03T14:14:49;83.63;;;34.05;;
58689;SDS011;44470;53.206;-6.106;2023-04-03T14:17:16;84.72;;;33.30;;
58689;SDS011;44470;53.206;-6.106;2023-04-03T14:19:43;78.35;;;34.38;;
58689;SDS011;44470;53.206;-6.106;2023-04-03T14:22:13;78.25;;;34.97;;
58689;SDS011;44470;53.206;-6.106;2023-04-03T14:24:42;81.45;;;35.28;;
58689;SDS011;44470;53.206;-6.106;2023-04-03T14:27:16;78.57;;;35.15;;
58689;SDS011;44470;53.206;-6.106;2023-04-03T14:29:47;80.50;;;35.03;;
58689;SDS011;44470;53.206;-6.106;2023-04-03T14:32:14;76.28;;;35.63;;
58689;SDS011;44470;53.206;-6.106;2023-04-03T14:34:41;74.07;;;33.33;;
58689;SDS011;44470;53.206;-6.106;2023-04-03T14:37:22;75.28;;;33.00;;
58689;SDS011;44470;53.206;-6.106;2023-04-03T14:39:49;78.60;;;36.05;;
58689;SDS011;44470;53.206;-6.106;2023-04-03T14:42:17;77.97;;;33.60;;
58689;SDS011;44470;53.206;-6.106;2023-04-03T14:44:44;70.03;;;33.15;;
58689;SDS011;44470;53.206;-6.106;2023-04-03T14:47:11;74.45;;;33.38;;
58689;SDS011;44470;53.206;-6.106;2023-04-03T14:49:38;60.60;;;27.33;;
58689;SDS011;44470;53.206;-6.106;2023-04-03T14:52:04;60.58;;;29.05;;
58689;SDS011;44470;53.206;-6.106;2023-04-03T14:54:30;71.90;;;30.20;;
58689;SDS011;44470;53.206;-6.106;2023-04-03T14:56:57;71.90;;;31.50;;
58689;SDS011;44470;53.206;-6.106;2023-04-03T14:59:23;69.60;;;26.67;;
58689;SDS011;44470;53.206;-6.106;2023-04-03T15:01:50;37.30;;;12.13;;
58689;SDS011;44470;53.206;-6.106;2023-04-03T15:04:17;22.75;;;7.25;;
58689;SDS011;44470;53.206;-6.106;2023-04-03T15:09:15;11.48;;;5.03;;
58689;SDS011;44470;53.206;-6.106;2023-04-03T15:11:45;13.95;;;4.88;;
58689;SDS011;44470;53.206;-6.106;2023-04-03T15:14:11;9.38;;;4.78;;
58689;SDS011;44470;53.206;-6.106;2023-04-03T15:16:37;14.70;;;4.60;;
58689;SDS011;44470;53.206;-6.106;2023-04-03T15:19:02;13.13;;;4.38;;
58689;SDS011;44470;53.206;-6.106;2023-04-03T15:21:28;8.95;;;3.85;;
58689;SDS011;44470;53.206;-6.106;2023-04-03T15:23:53;11.35;;;4.38;;
58689;SDS011;44470;53.206;-6.106;2023-04-03T15:26:19;10.43;;;4.15;;
58689;SDS011;44470;53.206;-6.106;2023-04-03T15:28:45;15.73;;;4.47;;
58689;SDS011;44470;53.206;-6.106;2023-04-03T15:31:11;13.02;;;4.22;;
58689;SDS011;44470;53.206;-6.106;2023-04-03T15:33:37;12.23;;;4.22;;
58689;SDS011;44470;53.206;-6.106;2023-04-03T15:36:04;13.00;;;4.55;;
58689;SDS011;44470;53.206;-6.106;2023-04-03T15:38:30;12.80;;;4.80;;
58689;SDS011;44470;53.206;-6.106;2023-04-03T15:40:56;12.10;;;4.85;;
58689;SDS011;44470;53.206;-6.106;2023-04-03T15:43:21;14.40;;;5.65;;
58689;SDS011;44470;53.206;-6.106;2023-04-03T15:45:47;16.35;;;6.45;;
58689;SDS011;44470;53.206;-6.106;2023-04-03T15:48:14;21.90;;;7.20;;
58689;SDS011;44470;53.206;-6.106;2023-04-03T15:50:40;33.70;;;7.55;;
58689;SDS011;44470;53.206;-6.106;2023-04-03T15:53:06;19.00;;;5.13;;
58689;SDS011;44470;53.206;-6.106;2023-04-03T15:55:33;12.75;;;4.55;;
58689;SDS011;44470;53.206;-6.106;2023-04-03T15:58:00;15.00;;;4.93;;
58689;SDS011;44470;53.206;-6.106;2023-04-03T16:00:26;15.88;;;4.88;;
58689;SDS011;44470;53.206;-6.106;2023-04-03T16:02:54;15.07;;;4.80;;
58689;SDS011;44470;53.206;-6.106;2023-04-03T16:05:23;20.17;;;5.47;;
58689;SDS011;44470;53.206;-6.106;2023-04-03T16:07:49;11.00;;;4.50;;
58689;SDS011;44470;53.206;-6.106;2023-04-03T16:10:15;14.20;;;4.60;;
58689;SDS011;44470;53.206;-6.106;2023-04-03T16:12:42;12.27;;;4.82;;
58689;SDS011;44470;53.206;-6.106;2023-04-03T16:15:08;12.45;;;4.82;;
58689;SDS011;44470;53.206;-6.106;2023-04-03T16:17:34;11.38;;;4.82;;
58689;SDS011;44470;53.206;-6.106;2023-04-03T16:20:03;12.05;;;4.40;;
58689;SDS011;44470;53.206;-6.106;2023-04-03T16:22:29;18.75;;;5.22;;
58689;SDS011;44470;53.206;-6.106;2023-04-03T16:24:55;13.35;;;4.05;;
58689;SDS011;44470;53.206;-6.106;2023-04-03T16:27:21;11.02;;;4.15;;
58689;SDS011;44470;53.206;-6.106;2023-04-03T16:29:52;12.55;;;4.25;;
58689;SDS011;44470;53.206;-6.106;2023-04-03T16:32:21;11.80;;;3.85;;
58689;SDS011;44470;53.206;-6.106;2023-04-03T16:34:48;10.23;;;3.75;;
58689;SDS011;44470;53.206;-6.106;2023-04-03T16:37:14;12.38;;;4.05;;
58689;SDS011;44470;53.206;-6.106;2023-04-03T16:39:40;9.07;;;3.72;;
58689;SDS011;44470;53.206;-6.106;2023-04-03T16:42:05;11.60;;;4.10;;
58689;SDS011;44470;53.206;-6.106;2023-04-03T16:44:31;10.82;;;4.50;;
58689;SDS011;44470;53.206;-6.106;2023-04-03T16:46:57;15.07;;;7.13;;
58689;SDS011;44470;53.206;-6.106;2023-04-03T16:49:22;22.77;;;10.55;;